Time;durP1;ratioP1;P1;durP2;ratioP2;P2;SDS_P1;SDS_P2;PMS_P1;PMS_P2;Temp;Humidity;BMP_temperature;BMP_pressure;BME280_temperature;BME280_humidity;BME280_pressure;Samples;Min_cycle;Max_cycle;Signal;HPM_P1;HPM_P2
2022/06/06 00:00:13;;;;;;;11.40;9.60;;;;;;;16.19;60.53;97980.61;109289;1279;22362;-78
2022/06/06 00:03:02;;;;;;;11.10;10.10;;;;;;;16.12;60.11;97976.69;109332;1280;22262;-78
2022/06/06 00:05:29;;;;;;;12.50;11.20;;;;;;;16.07;60.06;97980.00;109106;1281;22363;-78
2022/06/06 00:07:58;;;;;;;10.90;9.90;;;;;;;16.01;60.28;97980.81;109131;1281;22306;-78
2022/06/06 00:10:26;;;;;;;11.60;10.40;;;;;;;15.97;60.36;97976.92;109138;1281;22309;-78
2022/06/06 00:12:54;;;;;;;10.90;9.90;;;;;;;15.93;60.93;97978.23;109299;1280;22279;-78
2022/06/06 00:15:22;;;;;;;10.50;9.50;;;;;;;15.89;61.26;97977.73;109333;1279;22256;-78
2022/06/06 00:17:50;;;;;;;10.00;9.10;;;;;;;15.89;61.57;97977.02;109309;1279;22451;-78
2022/06/06 00:20:18;;;;;;;11.90;10.50;;;;;;;15.87;61.98;97973.61;109017;1280;22356;-78
2022/06/06 00:22:46;;;;;;;11.20;9.60;;;;;;;15.84;61.63;97977.79;109288;1279;22301;-78
2022/06/06 00:25:14;;;;;;;11.60;10.50;;;;;;;15.82;61.44;97978.56;109175;1280;22365;-78
2022/06/06 00:27:42;;;;;;;12.30;11.20;;;;;;;15.80;61.56;97972.89;109323;1280;22212;-78
2022/06/06 00:30:11;;;;;;;11.30;10.30;;;;;;;15.77;61.60;97970.83;109309;1280;22371;-78
2022/06/06 00:35:26;;;;;;;12.90;11.60;;;;;;;15.70;62.10;97970.72;109313;1280;22294;-78
2022/06/06 00:37:56;;;;;;;11.20;10.20;;;;;;;15.69;62.53;97970.60;109172;1280;23064;-78
2022/06/06 00:40:25;;;;;;;11.40;10.20;;;;;;;15.70;62.94;97972.96;109320;1279;22379;-78
2022/06/06 00:42:53;;;;;;;12.20;11.00;;;;;;;15.71;63.21;97974.85;109279;1280;22376;-78
2022/06/06 00:45:32;;;;;;;12.90;11.50;;;;;;;15.67;62.54;97974.31;109300;1280;23156;-78
2022/06/06 00:48:13;;;;;;;12.80;11.50;;;;;;;15.66;62.55;97973.08;109270;1279;22384;-78
2022/06/06 00:50:47;;;;;;;13.10;11.90;;;;;;;15.63;62.80;97971.58;109311;1280;23067;-78
2022/06/06 00:53:48;;;;;;;13.00;11.90;;;;;;;15.59;62.83;97970.80;109333;1279;22959;-78
2022/06/06 00:56:25;;;;;;;11.60;10.50;;;;;;;15.55;62.71;97976.19;107955;1289;22567;-78
2022/06/06 00:58:59;;;;;;;12.30;11.20;;;;;;;15.54;63.06;97975.91;108252;1288;22396;-77
2022/06/06 01:01:28;;;;;;;11.00;10.10;;;;;;;15.56;64.01;97978.04;108120;1288;22570;-78
2022/06/06 01:04:03;;;;;;;12.10;11.00;;;;;;;15.53;64.24;97971.36;108257;1287;22298;-78
2022/06/06 01:06:36;;;;;;;;;;;;;;;15.50;64.28;97969.04;108253;1288;22474;-78
2022/06/06 01:09:04;;;;;;;13.50;12.30;;;;;;;15.44;63.98;97969.62;108219;1287;22371;-78
2022/06/06 01:11:36;;;;;;;13.70;12.00;;;;;;;15.40;64.16;97971.48;108233;1288;23294;-78
2022/06/06 01:14:07;;;;;;;12.60;11.40;;;;;;;15.36;64.32;97971.64;108258;1288;23252;-78
2022/06/06 01:16:40;;;;;;;12.20;10.80;;;;;;;15.33;64.45;97975.77;108050;1288;23193;-78
2022/06/06 01:19:26;;;;;;;14.60;11.70;;;;;;;15.32;64.31;97966.86;108273;1287;22443;-78
2022/06/06 01:22:45;;;;;;;12.50;11.40;;;;;;;15.33;64.63;97960.57;108301;1287;22275;-78
2022/06/06 01:25:34;;;;;;;12.70;11.40;;;;;;;15.30;64.60;97957.75;107945;1287;22492;-77
2022/06/06 01:28:20;;;;;;;12.00;10.90;;;;;;;15.28;64.93;97952.30;108296;1287;22359;-78
2022/06/06 01:30:54;;;;;;;13.30;12.00;;;;;;;15.25;65.27;97948.88;108261;1287;22364;-78
2022/06/06 01:33:24;;;;;;;13.90;11.90;;;;;;;15.23;65.07;97944.59;108914;1280;22423;-78
2022/06/06 01:35:52;;;;;;;12.70;11.50;;;;;;;15.24;65.10;97939.14;109357;1279;23073;-78
2022/06/06 01:38:23;;;;;;;11.60;10.20;;;;;;;15.27;65.63;97940.88;109337;1279;23103;-78
2022/06/06 01:41:07;;;;;;;11.60;10.60;;;;;;;15.31;65.46;97941.71;109359;1279;22375;-78
2022/06/06 01:44:02;;;;;;;12.00;10.70;;;;;;;15.35;65.49;97947.05;109371;1279;23077;-78
2022/06/06 01:46:34;;;;;;;13.10;11.80;;;;;;;15.36;65.56;97945.52;109293;1280;22294;-78
2022/06/06 01:49:06;;;;;;;11.70;10.70;;;;;;;15.38;65.57;97948.21;109306;1280;22495;-78
2022/06/06 01:51:34;;;;;;;12.00;10.80;;;;;;;15.39;65.71;97945.30;109367;1278;22837;-78
2022/06/06 01:54:02;;;;;;;11.50;10.40;;;;;;;15.40;65.82;97941.14;109355;1278;22980;-78
2022/06/06 01:56:34;;;;;;;11.80;10.30;;;;;;;15.41;65.67;97936.48;109341;1278;23107;-78
2022/06/06 01:59:02;;;;;;;10.80;9.80;;;;;;;15.44;65.81;97935.17;109361;1278;22236;-78
2022/06/06 02:01:30;;;;;;;11.30;10.10;;;;;;;15.47;65.92;97935.34;109337;1279;22292;-78
2022/06/06 02:03:58;;;;;;;11.40;10.20;;;;;;;15.47;65.58;97942.25;109289;1280;22314;-77
2022/06/06 02:06:26;;;;;;;11.10;10.10;;;;;;;15.47;65.69;97938.14;109357;1279;22281;-78
2022/06/06 02:08:54;;;;;;;11.00;10.00;;;;;;;15.46;65.68;97939.66;109371;1279;22436;-78
2022/06/06 02:11:22;;;;;;;12.60;11.40;;;;;;;15.43;65.98;97931.86;109372;1279;23124;-77
2022/06/06 02:13:50;;;;;;;12.30;10.30;;;;;;;15.39;66.06;97933.11;109342;1279;22485;-78
2022/06/06 02:16:18;;;;;;;10.30;9.30;;;;;;;15.38;66.45;97932.14;109340;1279;22912;-78
2022/06/06 02:18:46;;;;;;;10.60;9.60;;;;;;;15.40;66.50;97927.89;109299;1279;23153;-79
2022/06/06 02:21:16;;;;;;;11.00;9.90;;;;;;;15.43;66.33;97923.33;109293;1280;22268;-78
2022/06/06 02:23:44;;;;;;;11.40;10.20;;;;;;;15.44;66.36;97914.60;109294;1279;22288;-78
2022/06/06 02:26:12;;;;;;;10.90;9.80;;;;;;;15.43;66.18;97910.45;109311;1280;22441;-78
2022/06/06 02:28:41;;;;;;;11.60;10.50;;;;;;;15.43;66.13;97910.55;109319;1280;23008;-78
2022/06/06 02:31:11;;;;;;;13.30;11.00;;;;;;;15.42;66.21;97920.59;109187;1280;23343;-78
2022/06/06 02:33:39;;;;;;;10.10;9.20;;;;;;;15.41;66.21;97922.04;109290;1280;23185;-78
2022/06/06 02:36:07;;;;;;;10.10;9.00;;;;;;;15.42;66.36;97924.71;109271;1280;22532;-78
2022/06/06 02:38:35;;;;;;;11.30;9.90;;;;;;;15.44;66.46;97927.20;109301;1280;22343;-78
2022/06/06 02:41:09;;;;;;;11.10;10.10;;;;;;;15.45;66.21;97932.26;109293;1280;22328;-78
2022/06/06 02:43:39;;;;;;;10.80;9.90;;;;;;;15.44;66.14;97933.70;109351;1280;22289;-77
2022/06/06 02:46:10;;;;;;;12.80;9.90;;;;;;;15.42;66.22;97937.27;108986;1280;22446;-77
2022/06/06 02:48:38;;;;;;;11.10;9.90;;;;;;;15.39;66.21;97936.60;109227;1280;22391;-77
2022/06/06 02:51:06;;;;;;;12.60;11.40;;;;;;;15.37;66.14;97954.35;108972;1280;23182;-77
2022/06/06 02:53:34;;;;;;;11.80;10.80;;;;;;;15.35;65.96;97972.13;109256;1280;22350;-77
2022/06/06 02:56:03;;;;;;;11.00;10.00;;;;;;;15.32;65.94;97978.59;109333;1280;22441;-77
2022/06/06 02:58:31;;;;;;;12.10;10.30;;;;;;;15.30;65.81;97984.52;109291;1277;22293;-77
2022/06/06 03:01:00;;;;;;;13.00;11.70;;;;;;;15.28;66.10;97982.96;109282;1280;23438;-77
2022/06/06 03:03:28;;;;;;;13.30;12.10;;;;;;;15.24;66.06;97980.94;109294;1280;22471;-77
2022/06/06 03:06:05;;;;;;;14.90;13.50;;;;;;;15.18;65.96;97985.41;108990;1280;22435;-77
2022/06/06 03:08:45;;;;;;;13.00;11.80;;;;;;;15.11;66.06;97988.46;109301;1280;22290;-77
2022/06/06 03:11:35;;;;;;;13.00;11.70;;;;;;;15.09;66.24;97984.20;109279;1280;22388;-77
2022/06/06 03:14:37;;;;;;;13.10;11.90;;;;;;;15.06;66.28;97980.52;109308;1280;22390;-77
2022/06/06 03:20:46;;;;;;;;;;;;;;;15.06;66.28;97973.31;109237;1280;22459;-77
2022/06/06 03:23:52;;;;;;;12.10;11.10;;;;;;;15.02;66.62;97968.81;109298;1280;22479;-77
2022/06/06 03:26:38;;;;;;;;;;;;;;;15.01;66.88;97968.14;109283;1280;23264;-77
2022/06/06 03:29:28;;;;;;;12.40;11.30;;;;;;;15.01;67.05;97971.56;108925;1282;22270;-77
2022/06/06 03:32:29;;;;;;;11.30;10.20;;;;;;;15.05;66.95;97977.83;108946;1281;22363;-77
2022/06/06 03:35:05;;;;;;;12.40;11.20;;;;;;;15.13;66.82;97983.07;109262;1280;23095;-77
2022/06/06 03:37:41;;;;;;;12.40;11.10;;;;;;;15.22;66.80;97984.04;109260;1280;22379;-77
2022/06/06 03:40:34;;;;;;;11.50;10.50;;;;;;;15.30;66.93;97984.28;109198;1281;22258;-78
2022/06/06 03:43:14;;;;;;;11.30;10.40;;;;;;;15.36;66.79;97978.99;109277;1280;22370;-77
2022/06/06 03:45:45;;;;;;;11.40;10.30;;;;;;;15.40;66.67;97971.40;109226;1280;22320;-78
2022/06/06 03:48:31;;;;;;;12.20;11.10;;;;;;;15.43;66.87;97966.40;109215;1280;22356;-77
2022/06/06 03:51:02;;;;;;;12.20;11.00;;;;;;;15.47;66.81;97959.02;109235;1280;22333;-79
2022/06/06 03:53:54;;;;;;;11.40;10.20;;;;;;;15.50;67.01;97953.85;109233;1280;22364;-79
2022/06/06 03:57:25;;;;;;;12.10;9.30;;;;;;;15.57;67.04;97952.32;109165;1281;23178;-79
2022/06/06 03:59:56;;;;;;;13.70;10.30;;;;;;;15.72;67.05;97952.17;108202;1288;22210;-78
2022/06/06 04:02:31;;;;;;;11.00;10.00;;;;;;;15.80;66.97;97946.77;108203;1288;22392;-79
2022/06/06 04:05:01;;;;;;;10.60;9.60;;;;;;;15.87;66.90;97943.97;107982;1289;22643;-78
2022/06/06 04:07:30;;;;;;;10.30;9.30;;;;;;;15.96;66.76;97944.18;107861;1290;22377;-78
2022/06/06 04:09:59;;;;;;;10.40;9.40;;;;;;;16.04;66.72;97942.86;108204;1288;22395;-79
2022/06/06 04:13:01;;;;;;;10.00;9.00;;;;;;;16.13;66.62;97939.69;108208;1290;23202;-79
2022/06/06 04:15:56;;;;;;;11.00;9.20;;;;;;;16.22;66.33;97939.38;108190;1289;22406;-78
2022/06/06 04:18:46;;;;;;;10.50;8.80;;;;;;;16.31;66.23;97942.27;108223;1287;23215;-78
2022/06/06 04:21:25;;;;;;;10.00;9.00;;;;;;;16.42;66.17;97947.77;108253;1289;22420;-77
2022/06/06 04:24:30;;;;;;;9.20;8.30;;;;;;;16.53;66.07;97949.85;108218;1289;22379;-78
2022/06/06 04:27:11;;;;;;;9.90;8.70;;;;;;;16.68;65.88;97958.73;107998;1290;22596;-78
2022/06/06 04:30:00;;;;;;;9.20;8.40;;;;;;;16.77;65.65;97960.80;108012;1290;22430;-78
2022/06/06 04:33:10;;;;;;;11.10;9.70;;;;;;;16.86;65.58;97947.79;108863;1281;22440;-78
2022/06/06 04:35:43;;;;;;;11.40;9.50;;;;;;;16.96;65.53;97945.39;108879;1281;22486;-79
2022/06/06 04:38:24;;;;;;;11.10;10.00;;;;;;;17.04;65.44;97945.29;108887;1282;22388;-79
2022/06/06 04:41:01;;;;;;;10.20;9.30;;;;;;;17.11;65.27;97949.77;108890;1281;23231;-79
2022/06/06 04:43:53;;;;;;;10.10;9.10;;;;;;;17.18;65.15;97951.25;108863;1283;22400;-79
2022/06/06 04:46:29;;;;;;;11.10;8.60;;;;;;;17.29;65.03;97944.49;108891;1282;23146;-79
2022/06/06 04:48:59;;;;;;;9.80;8.80;;;;;;;17.42;64.88;97948.11;108868;1281;22422;-79
2022/06/06 04:51:28;;;;;;;9.40;8.50;;;;;;;17.55;64.74;97952.30;108860;1283;22219;-79
2022/06/06 04:53:56;;;;;;;9.50;8.50;;;;;;;17.66;64.57;97951.47;108890;1282;22320;-79
2022/06/06 04:56:26;;;;;;;11.10;8.20;;;;;;;17.77;64.38;97954.52;108872;1282;22539;-79
2022/06/06 04:58:57;;;;;;;9.90;8.90;;;;;;;17.82;64.04;97950.87;109135;1280;22424;-79
2022/06/06 05:01:26;;;;;;;12.50;9.80;;;;;;;17.88;63.79;97953.39;109250;1279;23051;-79
2022/06/06 05:03:54;;;;;;;9.00;8.10;;;;;;;17.88;63.52;97953.31;109276;1279;22474;-79
2022/06/06 05:06:38;;;;;;;10.10;9.10;;;;;;;17.90;63.42;97957.66;109250;1280;22307;-79
2022/06/06 05:09:27;;;;;;;9.30;8.40;;;;;;;17.93;63.49;97959.13;109240;1280;22532;-79
2022/06/06 05:12:21;;;;;;;11.20;10.10;;;;;;;17.95;63.42;97960.22;109241;1280;22291;-78
2022/06/06 05:14:49;;;;;;;10.60;9.50;;;;;;;18.03;63.52;97961.84;108472;1286;22739;-80
2022/06/06 05:17:43;;;;;;;10.70;9.30;;;;;;;18.09;63.38;97967.86;108517;1286;22625;-79
2022/06/06 05:20:36;;;;;;;9.90;9.00;;;;;;;18.15;63.23;97963.59;108211;1288;22519;-79
2022/06/06 05:23:18;;;;;;;10.00;9.10;;;;;;;18.17;63.03;97967.37;108205;1289;22416;-79
2022/06/06 05:25:58;;;;;;;9.60;8.70;;;;;;;18.17;62.86;97968.55;108218;1289;22426;-79
2022/06/06 05:28:26;;;;;;;9.90;8.70;;;;;;;18.16;62.69;97967.75;108140;1289;22473;-79
2022/06/06 05:30:56;;;;;;;8.90;8.10;;;;;;;18.19;62.94;97971.71;108211;1289;22582;-79
2022/06/06 05:33:52;;;;;;;11.50;8.50;;;;;;;18.25;62.86;97970.55;108222;1289;22551;-78
2022/06/06 05:36:20;;;;;;;9.30;8.50;;;;;;;18.32;62.80;97975.65;108220;1289;22465;-79
2022/06/06 05:39:26;;;;;;;9.70;8.30;;;;;;;18.33;62.59;97973.77;108216;1288;22520;-79
2022/06/06 05:42:46;;;;;;;11.30;9.00;;;;;;;18.36;62.65;97971.09;108206;1288;22307;-79
2022/06/06 05:45:19;;;;;;;9.80;8.80;;;;;;;18.40;62.50;97977.59;108014;1288;22289;-79
2022/06/06 05:47:58;;;;;;;9.40;8.50;;;;;;;18.47;62.49;97977.79;108208;1289;23529;-79
2022/06/06 05:50:32;;;;;;;9.80;8.80;;;;;;;18.57;62.35;97978.14;108226;1287;22571;-79
2022/06/06 05:53:33;;;;;;;9.80;8.80;;;;;;;18.61;62.09;97975.83;109108;1280;22425;-79
2022/06/06 05:56:30;;;;;;;10.90;8.10;;;;;;;18.63;62.08;97979.70;109255;1280;22431;-79
2022/06/06 05:59:35;;;;;;;9.40;7.70;;;;;;;18.62;61.93;97983.40;109290;1279;22337;-79
2022/06/06 06:02:17;;;;;;;10.60;8.10;;;;;;;18.64;61.91;97985.51;109325;1279;22245;-79
2022/06/06 06:05:15;;;;;;;8.90;8.00;;;;;;;18.69;61.62;97993.88;109307;1279;22457;-80
2022/06/06 06:08:17;;;;;;;8.60;7.70;;;;;;;18.67;61.47;97996.81;109297;1279;22338;-80
2022/06/06 06:11:28;;;;;;;9.40;8.40;;;;;;;18.72;61.25;97995.21;109301;1280;22341;-88
2022/06/06 06:15:23;;;;;;;8.50;7.40;;;;;;;18.86;61.31;98000.35;108186;1285;22397;-90
2022/06/06 06:17:54;;;;;;;9.40;8.50;;;;;;;18.96;60.96;98005.61;107827;1288;22538;-89
2022/06/06 06:20:30;;;;;;;9.20;8.30;;;;;;;19.01;60.69;98004.89;108199;1288;23109;-90
2022/06/06 06:23:05;;;;;;;9.00;8.10;;;;;;;19.02;60.53;98010.46;108083;1288;22265;-91
2022/06/06 06:25:37;;;;;;;9.30;8.20;;;;;;;19.09;60.49;98015.23;108239;1288;23059;-92
2022/06/06 06:28:10;;;;;;;8.40;6.90;;;;;;;19.18;60.43;98008.90;108256;1288;22469;-90
2022/06/06 06:31:04;;;;;;;8.90;8.00;;;;;;;19.32;60.41;98007.61;108271;1288;22488;-92
2022/06/06 06:34:03;;;;;;;9.60;8.50;;;;;;;19.51;60.41;98011.62;109127;1270;22413;-91
2022/06/06 06:37:04;;;;;;;7.60;6.40;;;;;;;19.76;60.27;98011.23;109596;1276;22410;-89
2022/06/06 06:40:11;;;;;;;7.30;6.60;;;;;;;20.00;60.00;98007.98;109367;1277;22442;-87
2022/06/06 06:43:11;;;;;;;8.60;7.70;;;;;;;20.15;59.69;98007.61;109155;1281;22508;-92
2022/06/06 06:46:00;;;;;;;9.40;6.60;;;;;;;20.20;58.72;98013.81;109032;1280;22554;-88
2022/06/06 06:48:45;;;;;;;9.20;6.40;;;;;;;20.23;58.34;98018.27;108984;1281;22626;-86
2022/06/06 06:51:13;;;;;;;;;;;;;;;20.37;58.20;98019.09;108995;1281;22446;-88
2022/06/06 06:53:41;;;;;;;6.70;5.90;;;;;;;20.45;58.13;98018.46;109129;1280;23199;-87
2022/06/06 06:56:30;;;;;;;7.80;6.40;;;;;;;20.51;58.18;98019.38;109099;1280;22491;-85
2022/06/06 06:59:28;;;;;;;7.60;5.50;;;;;;;20.57;57.72;98014.66;109095;1281;22381;-84
2022/06/06 07:08:36;;;;;;;9.00;7.10;;;;;;;20.68;57.23;98016.73;109136;1281;22465;-85
2022/06/06 07:11:25;;;;;;;7.00;6.30;;;;;;;20.65;57.05;98017.15;109131;1280;22423;-84
2022/06/06 07:13:59;;;;;;;8.00;6.90;;;;;;;20.68;56.63;98020.18;109144;1279;23082;-84
2022/06/06 07:16:28;;;;;;;;;;;;;;;20.62;56.20;98021.23;109532;1277;22925;-84
2022/06/06 07:19:06;;;;;;;7.40;6.70;;;;;;;20.60;56.57;98019.65;109313;1279;22278;-85
2022/06/06 07:21:36;;;;;;;8.70;7.30;;;;;;;20.67;56.73;98021.02;109316;1277;23092;-84
2022/06/06 07:24:08;;;;;;;9.50;6.80;;;;;;;20.80;56.67;98019.95;109507;1277;22484;-85
2022/06/06 07:26:38;;;;;;;8.10;6.90;;;;;;;20.98;56.31;98020.17;109450;1280;22575;-85
2022/06/06 07:29:09;;;;;;;8.80;7.50;;;;;;;21.21;56.59;98017.29;109373;1277;22536;-85
2022/06/06 07:32:04;;;;;;;8.70;7.30;;;;;;;21.40;55.65;98018.33;109550;1277;22421;-85
2022/06/06 07:34:48;;;;;;;9.30;7.10;;;;;;;21.50;55.50;98017.39;109584;1277;23165;-84
2022/06/06 07:37:50;;;;;;;9.70;6.90;;;;;;;21.65;55.75;98016.92;109540;1277;23079;-84
2022/06/06 07:40:21;;;;;;;10.00;6.50;;;;;;;21.79;55.34;98007.80;109508;1277;22413;-85
2022/06/06 07:43:04;;;;;;;7.30;6.20;;;;;;;21.91;55.42;98002.39;109633;1277;22358;-90
2022/06/06 07:45:44;;;;;;;7.80;6.90;;;;;;;22.02;54.43;98000.11;109555;1276;22414;-88
2022/06/06 07:48:28;;;;;;;7.30;6.50;;;;;;;22.11;55.14;97995.14;109539;1277;22230;-89
2022/06/06 07:51:13;;;;;;;7.70;6.10;;;;;;;22.25;54.96;97994.23;109581;1277;23032;-90
2022/06/06 07:54:17;;;;;;;7.50;5.60;;;;;;;22.37;54.14;97993.90;109652;1275;22372;-89
2022/06/06 07:57:30;;;;;;;7.10;5.60;;;;;;;22.56;54.44;97995.46;108881;1283;22423;-90
2022/06/06 08:00:06;;;;;;;6.20;5.60;;;;;;;22.74;53.61;97995.48;108353;1289;22601;-91
2022/06/06 08:03:18;;;;;;;6.10;5.40;;;;;;;22.93;53.53;97991.84;108240;1289;22480;-86
2022/06/06 08:06:12;;;;;;;8.60;5.80;;;;;;;23.18;53.34;97995.63;108328;1287;22413;-86
2022/06/06 08:09:07;;;;;;;7.20;6.10;;;;;;;23.37;52.92;97991.54;108192;1289;22371;-87
2022/06/06 08:11:56;;;;;;;6.60;4.90;;;;;;;23.50;52.82;97990.68;108327;1288;22570;-85
2022/06/06 08:14:29;;;;;;;5.70;5.10;;;;;;;23.61;51.71;97993.98;108323;1288;22498;-85
2022/06/06 08:17:10;;;;;;;7.80;5.00;;;;;;;23.71;51.68;97995.40;108313;1288;22220;-85
2022/06/06 08:19:58;;;;;;;6.00;5.30;;;;;;;23.78;50.69;97993.65;108254;1288;22414;-86
2022/06/06 08:22:29;;;;;;;6.20;4.80;;;;;;;23.82;50.17;97997.84;108334;1289;22716;-86
2022/06/06 08:25:02;;;;;;;6.20;5.20;;;;;;;23.85;49.46;97991.88;108209;1289;23028;-86
2022/06/06 08:27:42;;;;;;;7.30;4.80;;;;;;;23.95;50.01;97991.23;108217;1289;22544;-87
2022/06/06 08:30:11;;;;;;;6.20;4.90;;;;;;;24.09;49.94;97993.66;108246;1288;22306;-86
2022/06/06 08:36:57;;;;;;;5.50;4.90;;;;;;;24.40;49.80;97982.79;108806;1279;22499;-87
2022/06/06 08:39:29;;;;;;;6.80;5.20;;;;;;;24.59;49.15;97995.67;109475;1279;22540;-88
2022/06/06 08:42:35;;;;;;;5.90;5.00;;;;;;;24.66;48.85;97993.82;109596;1277;22445;-88
2022/06/06 08:45:31;;;;;;;6.40;4.80;;;;;;;24.89;48.48;97999.91;109566;1277;22252;-88
2022/06/06 08:48:29;;;;;;;10.50;4.80;;;;;;;25.07;48.95;97997.11;109590;1277;23071;-88
2022/06/06 08:51:39;;;;;;;7.10;4.80;;;;;;;25.26;47.73;97995.48;108801;1284;22307;-87
2022/06/06 08:54:28;;;;;;;9.60;6.90;;;;;;;25.38;47.60;97995.48;108854;1283;22603;-86
2022/06/06 08:57:08;;;;;;;8.00;6.20;;;;;;;25.41;46.94;97996.35;108800;1283;22446;-86
2022/06/06 09:00:16;;;;;;;7.10;4.80;;;;;;;25.42;47.05;97993.98;108490;1283;22414;-87
2022/06/06 09:03:23;;;;;;;5.40;4.20;;;;;;;25.44;46.96;97988.70;108154;1290;23178;-87
2022/06/06 09:06:10;;;;;;;6.70;5.30;;;;;;;25.37;46.51;97986.50;107970;1290;23126;-86
2022/06/06 09:09:03;;;;;;;5.20;4.50;;;;;;;25.23;46.57;97982.25;108169;1289;22599;-86
2022/06/06 09:11:49;;;;;;;6.20;4.90;;;;;;;25.42;46.78;97979.26;107922;1290;22581;-86
2022/06/06 09:14:29;;;;;;;5.80;5.00;;;;;;;25.60;46.68;97978.99;107910;1290;22413;-88
2022/06/06 09:17:31;;;;;;;7.30;5.00;;;;;;;25.79;45.70;97979.45;108138;1290;22273;-87
2022/06/06 09:20:35;;;;;;;5.10;4.50;;;;;;;25.93;45.36;97979.81;108165;1290;22414;-86
2022/06/06 09:23:28;;;;;;;6.80;4.90;;;;;;;25.91;44.41;97971.78;107845;1290;22293;-86
2022/06/06 09:26:39;;;;;;;5.90;5.10;;;;;;;25.93;44.73;97985.73;108175;1290;23200;-85
2022/06/06 09:29:34;;;;;;;6.50;5.00;;;;;;;25.91;43.25;97985.98;107886;1291;22505;-88
2022/06/06 09:37:25;;;;;;;6.60;4.90;;;;;;;26.07;43.73;97986.01;107857;1292;22409;-86
2022/06/06 09:40:23;;;;;;;6.00;5.00;;;;;;;26.42;43.84;97978.77;108345;1286;22414;-87
2022/06/06 09:43:54;;;;;;;7.00;5.00;;;;;;;26.81;43.07;97978.63;108524;1286;22251;-86
2022/06/06 09:47:10;;;;;;;5.50;4.90;;;;;;;26.80;42.54;97973.36;107852;1292;22365;-85
2022/06/06 09:50:00;;;;;;;7.50;4.90;;;;;;;26.79;42.14;97972.34;107699;1291;23021;-83
2022/06/06 09:53:05;;;;;;;5.40;4.70;;;;;;;26.85;42.73;97973.48;107917;1291;22473;-84
2022/06/06 09:59:36;;;;;;;6.50;5.20;;;;;;;26.83;42.45;97974.52;107856;1291;22582;-85
2022/06/06 10:02:42;;;;;;;7.20;4.80;;;;;;;26.86;42.18;97969.67;107741;1291;22527;-85
2022/06/06 10:05:24;;;;;;;6.50;5.00;;;;;;;26.89;42.77;97967.92;107420;1293;22606;-86
2022/06/06 10:08:41;;;;;;;7.40;6.40;;;;;;;27.09;42.24;97966.29;108205;1288;22366;-84
2022/06/06 10:11:29;;;;;;;7.40;4.90;;;;;;;27.11;41.36;97969.50;108418;1287;22415;-86
2022/06/06 10:13:59;;;;;;;5.70;4.60;;;;;;;27.03;41.02;97967.98;108415;1287;22676;-86
2022/06/06 10:17:22;;;;;;;6.70;4.80;;;;;;;27.02;40.91;97960.79;108425;1287;22410;-86
2022/06/06 10:20:18;;;;;;;5.70;5.10;;;;;;;26.85;39.56;97958.71;108129;1281;434381;-86
2022/06/06 10:23:17;;;;;;;6.80;5.10;;;;;;;26.67;39.92;97961.28;109172;1280;22340;-87
2022/06/06 10:26:11;;;;;;;8.40;5.20;;;;;;;26.80;40.15;97961.27;108711;1283;22449;-87
2022/06/06 10:29:01;;;;;;;5.40;4.60;;;;;;;26.96;40.76;97955.94;109167;1281;22427;-87
2022/06/06 10:31:33;;;;;;;6.00;4.50;;;;;;;27.17;40.35;97945.69;109180;1281;22512;-87
2022/06/06 10:34:56;;;;;;;7.60;5.90;;;;;;;27.16;40.40;97950.13;109045;1281;22280;-87
2022/06/06 10:37:40;;;;;;;5.50;4.90;;;;;;;27.01;40.83;97947.53;109315;1277;22432;-87
2022/06/06 10:40:28;;;;;;;7.20;5.00;;;;;;;27.16;40.83;97942.13;109398;1277;23237;-87
2022/06/06 10:43:07;;;;;;;9.10;5.10;;;;;;;27.50;40.85;97938.66;109412;1275;22910;-87
2022/06/06 10:45:38;;;;;;;7.50;5.00;;;;;;;27.74;40.52;97934.08;109567;1275;22605;-85
2022/06/06 10:48:29;;;;;;;6.70;4.80;;;;;;;28.10;40.54;97939.05;109564;1276;22537;-86
2022/06/06 10:51:42;;;;;;;5.80;4.40;;;;;;;28.41;39.79;97929.09;109560;1277;23327;-85
2022/06/06 10:54:51;;;;;;;8.30;4.90;;;;;;;28.63;39.71;97932.67;109574;1276;23022;-85
2022/06/06 10:58:09;;;;;;;7.00;5.10;;;;;;;28.76;39.60;97929.77;109236;1277;22501;-86
2022/06/06 11:00:46;;;;;;;7.40;4.90;;;;;;;29.01;39.14;97929.33;108144;1284;22513;-86
2022/06/06 11:04:02;;;;;;;6.10;4.50;;;;;;;29.12;38.89;97936.06;108782;1283;23129;-87
2022/06/06 11:06:51;;;;;;;9.20;4.60;;;;;;;29.19;38.99;97928.80;109006;1283;23522;-87
2022/06/06 11:09:49;;;;;;;7.70;5.20;;;;;;;29.20;38.91;97929.67;108519;1286;22277;-87
2022/06/06 11:12:25;;;;;;;8.90;5.10;;;;;;;29.28;39.14;97929.84;108473;1284;22299;-87
2022/06/06 11:14:55;;;;;;;7.40;5.30;;;;;;;29.38;38.66;97934.19;108675;1284;23239;-87
2022/06/06 11:17:35;;;;;;;7.10;5.00;;;;;;;29.26;38.14;97935.11;108712;1283;22491;-86
2022/06/06 11:20:28;;;;;;;10.10;5.10;;;;;;;29.21;38.07;97931.71;108685;1284;22344;-86
2022/06/06 11:23:44;;;;;;;10.30;5.20;;;;;;;29.18;38.16;97919.71;108692;1284;22400;-85
2022/06/06 11:26:29;;;;;;;10.20;5.90;;;;;;;29.19;38.35;97920.23;108430;1287;22467;-87
2022/06/06 11:29:03;;;;;;;13.70;5.80;;;;;;;29.20;38.26;97922.78;108495;1285;23017;-82
2022/06/06 11:31:53;;;;;;;7.50;5.00;;;;;;;29.24;37.46;97923.00;108471;1286;23252;-85
2022/06/06 11:34:49;;;;;;;6.40;5.10;;;;;;;29.19;37.66;97919.21;108531;1284;22371;-83
2022/06/06 11:37:39;;;;;;;8.00;4.70;;;;;;;29.06;37.80;97922.20;108867;1280;22500;-83
2022/06/06 11:40:27;;;;;;;7.50;5.20;;;;;;;29.09;37.96;97922.08;109248;1280;23142;-85
2022/06/06 11:43:26;;;;;;;6.40;5.20;;;;;;;29.11;38.12;97918.80;108829;1283;22385;-84
2022/06/06 11:46:17;;;;;;;8.70;5.30;;;;;;;28.83;37.69;97922.30;108784;1282;22506;-84
2022/06/06 11:53:33;;;;;;;6.60;4.90;;;;;;;28.71;38.07;97910.30;109309;1278;22398;-83
2022/06/06 11:56:04;;;;;;;8.60;4.90;;;;;;;28.83;37.42;97907.50;109127;1280;23187;-84
2022/06/06 11:59:05;;;;;;;7.70;5.10;;;;;;;28.80;37.45;97903.49;109404;1277;22430;-83
2022/06/06 12:02:05;;;;;;;8.50;5.20;;;;;;;28.69;37.44;97900.89;109616;1275;22360;-83
2022/06/06 12:04:46;;;;;;;7.20;4.80;;;;;;;28.44;37.35;97901.19;109655;1277;22291;-85
2022/06/06 12:07:35;;;;;;;9.00;5.40;;;;;;;28.26;37.67;97902.61;109483;1277;22288;-84
2022/06/06 12:10:26;;;;;;;9.10;5.40;;;;;;;28.26;37.77;97899.03;109576;1277;23064;-84
2022/06/06 12:13:41;;;;;;;9.40;4.80;;;;;;;28.39;37.56;97890.79;109468;1277;22527;-84
2022/06/06 12:16:24;;;;;;;9.00;5.10;;;;;;;28.63;37.88;97892.11;109317;1277;22256;-85
2022/06/06 12:19:11;;;;;;;6.60;4.70;;;;;;;28.69;36.95;97885.92;109442;1277;22378;-83
2022/06/06 12:21:58;;;;;;;7.30;5.30;;;;;;;28.66;37.30;97886.14;109450;1277;22301;-83
2022/06/06 12:25:13;;;;;;;10.50;5.00;;;;;;;28.66;37.35;97881.14;109512;1277;22731;-83
2022/06/06 12:27:56;;;;;;;8.60;5.00;;;;;;;28.76;37.17;97884.38;109288;1277;22466;-81
2022/06/06 12:30:56;;;;;;;9.30;5.10;;;;;;;28.75;36.88;97879.00;109495;1277;22392;-82
2022/06/06 12:33:33;;;;;;;7.00;4.80;;;;;;;28.71;36.82;97877.50;109339;1279;22763;-84
2022/06/06 12:36:23;;;;;;;9.50;5.50;;;;;;;28.65;36.77;97875.54;109299;1279;22359;-82
2022/06/06 12:39:20;;;;;;;7.30;4.90;;;;;;;28.77;36.79;97876.21;109408;1277;22487;-82
2022/06/06 12:42:17;;;;;;;7.50;4.30;;;;;;;29.07;36.98;97868.60;109448;1277;23169;-83
2022/06/06 12:44:59;;;;;;;11.00;4.10;;;;;;;29.33;36.22;97870.12;108607;1285;22383;-81
2022/06/06 12:47:34;;;;;;;9.30;4.40;;;;;;;29.53;36.38;97868.88;108552;1285;22471;-84
2022/06/06 12:50:26;;;;;;;7.10;5.00;;;;;;;29.67;35.91;97866.09;108545;1284;22501;-82
2022/06/06 12:53:16;;;;;;;6.90;4.40;;;;;;;29.63;35.93;97867.66;108425;1286;23589;-82
2022/06/06 12:59:18;;;;;;;7.70;4.50;;;;;;;29.59;35.82;97857.50;108279;1286;22305;-81
2022/06/06 13:02:02;;;;;;;8.50;5.00;;;;;;;29.57;35.03;97851.91;108504;1285;22490;-83
2022/06/06 13:04:36;;;;;;;13.20;4.50;;;;;;;29.40;35.41;97853.73;108287;1286;22388;-80
2022/06/06 13:07:16;;;;;;;13.00;5.30;;;;;;;29.38;35.37;97850.77;108427;1286;22481;-82
2022/06/06 13:10:12;;;;;;;11.00;4.60;;;;;;;29.30;35.44;97853.13;108576;1284;22776;-82
2022/06/06 13:12:43;;;;;;;7.40;4.50;;;;;;;29.33;35.48;97854.43;108081;1290;22244;-82